createdAt,value
2022-09-05T00:02:01.494Z,10.12
2022-09-05T00:04:28.592Z,9.71
2022-09-05T00:07:36.044Z,9.30
2022-09-05T00:10:07.168Z,9.94
2022-09-05T00:12:36.216Z,9.90
2022-09-05T00:15:16.218Z,9.88
2022-09-05T00:23:13.495Z,9.90
2022-09-05T00:24:28.564Z,9.30
2022-09-05T00:24:42.164Z,9.83
2022-09-05T00:27:23.059Z,9.83
2022-09-05T00:31:08.617Z,9.75
2022-09-05T00:33:17.239Z,8.16
2022-09-05T00:35:51.040Z,8.97
2022-09-05T00:38:36.444Z,9.48
2022-09-05T00:41:09.326Z,9.32
2022-09-05T00:43:42.744Z,9.40
2022-09-05T00:46:22.505Z,9.38
2022-09-05T00:49:17.410Z,9.62
2022-09-05T00:52:12.977Z,9.47
2022-09-05T00:55:07.738Z,9.58
2022-09-05T00:57:56.199Z,9.63
2022-09-05T01:00:44.524Z,9.52
2022-09-05T01:03:30.160Z,9.48
2022-09-05T01:06:15.972Z,9.45
2022-09-05T01:08:50.119Z,9.42
2022-09-05T01:11:47.805Z,9.41
2022-09-05T01:14:48.462Z,9.38
2022-09-05T01:17:21.183Z,9.24
2022-09-05T01:20:18.584Z,9.21
2022-09-05T01:23:09.156Z,9.40
2022-09-05T01:25:55.106Z,8.99
2022-09-05T01:29:16.373Z,9.31
2022-09-05T01:31:43.481Z,9.17
2022-09-05T01:34:32.390Z,9.21
2022-09-05T01:37:26.557Z,8.74
2022-09-05T01:40:25.125Z,9.33
2022-09-05T01:43:10.705Z,9.27
2022-09-05T01:46:11.877Z,9.46
2022-09-05T01:49:07.659Z,9.47
2022-09-05T01:52:05.423Z,9.27
2022-09-05T01:54:44.505Z,9.42
2022-09-05T01:57:19.731Z,9.34
2022-09-05T01:59:54.048Z,9.42
2022-09-05T02:02:50.814Z,9.42
2022-09-05T02:05:48.462Z,8.87
2022-09-05T02:08:16.390Z,8.78
2022-09-05T02:11:13.382Z,9.58
2022-09-05T02:13:57.075Z,9.59
2022-09-05T02:16:39.203Z,9.61
2022-09-05T02:19:31.719Z,9.65
2022-09-05T02:22:10.637Z,9.65
2022-09-05T02:24:58.489Z,9.63
2022-09-05T02:28:05.113Z,9.75
2022-09-05T02:31:00.350Z,9.78
2022-09-05T02:33:53.365Z,9.82
2022-09-05T02:36:38.620Z,9.98
2022-09-05T02:45:02.201Z,9.87
2022-09-05T02:45:10.843Z,9.54
2022-09-05T02:46:18.194Z,9.21
2022-09-05T02:50:00.198Z,10.07
2022-09-05T02:57:27.516Z,10.05
2022-09-05T02:57:34.043Z,9.37
2022-09-05T02:58:09.100Z,10.05
2022-09-05T03:00:44.782Z,9.72
2022-09-05T03:03:17.769Z,10.11
2022-09-05T03:06:35.110Z,10.25
2022-09-05T03:09:21.801Z,10.04
2022-09-05T03:12:28.369Z,9.05
2022-09-05T03:15:23.583Z,10.26
2022-09-05T03:18:20.111Z,9.64
2022-09-05T03:21:19.102Z,10.29
2022-09-05T03:24:22.683Z,9.72
2022-09-05T03:27:01.834Z,10.06
2022-09-05T03:29:58.511Z,10.26
2022-09-05T03:32:43.066Z,10.32
2022-09-05T03:35:44.137Z,10.36
2022-09-05T03:38:31.146Z,9.31
2022-09-05T03:41:24.081Z,10.44
2022-09-05T03:44:00.989Z,10.46
2022-09-05T03:46:42.827Z,10.48
2022-09-05T03:51:11.940Z,9.92
2022-09-05T03:57:06.281Z,10.26
2022-09-05T03:57:27.375Z,10.30
2022-09-05T03:59:13.383Z,10.40
2022-09-05T04:07:48.151Z,10.36
2022-09-05T04:08:18.932Z,10.27
2022-09-05T04:08:49.434Z,10.41
2022-09-05T04:11:42.180Z,9.57
2022-09-05T04:14:42.591Z,10.51
2022-09-05T04:17:40.365Z,10.50
2022-09-05T04:20:43.987Z,10.55
2022-09-05T04:23:13.945Z,10.47
2022-09-05T04:26:11.606Z,10.56
2022-09-05T04:28:49.977Z,10.67
2022-09-05T04:31:20.919Z,10.11
2022-09-05T04:33:53.753Z,10.55
2022-09-05T04:36:28.848Z,10.48
2022-09-05T04:39:20.100Z,10.62
2022-09-05T04:41:53.771Z,10.53
2022-09-05T04:44:29.721Z,10.56
2022-09-05T04:47:08.168Z,10.73
2022-09-05T04:49:44.316Z,10.65
2022-09-05T04:52:31.829Z,10.49
2022-09-05T04:55:02.342Z,10.76
2022-09-05T04:57:37.014Z,10.79
2022-09-05T05:05:58.241Z,10.90
2022-09-05T05:06:15.297Z,10.96
2022-09-05T05:06:42.336Z,10.96
2022-09-05T05:09:06.931Z,11.11
2022-09-05T05:17:40.367Z,11.20
2022-09-05T05:18:06.722Z,11.26
2022-09-05T05:18:39.797Z,10.90
2022-09-05T05:21:18.238Z,11.31
2022-09-05T05:23:55.632Z,11.31
2022-09-05T05:26:41.435Z,11.22
2022-09-05T05:29:19.400Z,11.37
2022-09-05T05:31:49.918Z,11.39
2022-09-05T05:34:29.214Z,10.87
2022-09-05T05:37:03.339Z,11.15
2022-09-05T05:39:33.023Z,11.48
2022-09-05T05:42:19.421Z,11.07
2022-09-05T05:44:57.261Z,11.37
2022-09-05T05:47:31.643Z,11.32
2022-09-05T05:50:01.321Z,11.83
2022-09-05T05:52:31.023Z,11.89
2022-09-05T05:55:51.670Z,11.36
2022-09-05T05:58:32.749Z,12.14
2022-09-05T06:01:31.674Z,12.16
2022-09-05T06:04:32.405Z,11.66
2022-09-05T06:07:26.863Z,12.05
2022-09-05T06:14:55.643Z,12.34
2022-09-05T06:15:03.670Z,12.24
2022-09-05T06:16:53.506Z,11.68
2022-09-05T06:21:40.911Z,12.07
2022-09-05T06:23:02.073Z,12.66
2022-09-05T06:25:44.218Z,12.72
2022-09-05T06:28:25.946Z,12.68
2022-09-05T06:31:31.444Z,13.00
2022-09-05T06:34:32.939Z,13.09
2022-09-05T06:37:39.325Z,13.12
2022-09-05T06:40:42.331Z,13.19
2022-09-05T06:43:33.260Z,12.72
2022-09-05T06:46:54.503Z,13.45
2022-09-05T06:49:42.814Z,13.07
2022-09-05T06:52:46.445Z,13.34
2022-09-05T06:55:43.077Z,13.31
2022-09-05T06:58:29.167Z,13.57
2022-09-05T07:00:59.235Z,13.59
2022-09-05T07:04:33.365Z,13.73
2022-09-05T07:07:11.591Z,13.82
2022-09-05T07:09:52.663Z,13.42
2022-09-05T07:12:31.002Z,13.78
2022-09-05T07:15:08.937Z,14.07
2022-09-05T07:18:06.527Z,13.59
2022-09-05T07:21:16.717Z,13.82
2022-09-05T07:24:07.032Z,13.76
2022-09-05T07:26:52.290Z,13.67
2022-09-05T07:29:23.224Z,13.55
2022-09-05T07:31:55.569Z,13.66
2022-09-05T07:34:32.243Z,13.73
2022-09-05T07:37:16.286Z,13.73
2022-09-05T07:39:53.807Z,13.74
2022-09-05T07:42:30.393Z,12.73
2022-09-05T07:45:06.558Z,13.10
2022-09-05T07:47:38.340Z,13.09
2022-09-05T07:51:07.697Z,13.44
2022-09-05T07:56:47.245Z,13.48
2022-09-05T07:57:01.960Z,12.96
2022-09-05T07:58:52.867Z,13.47
2022-09-05T08:01:22.663Z,13.38
2022-09-05T08:03:56.090Z,12.82
2022-09-05T08:06:46.429Z,13.51
2022-09-05T08:10:06.220Z,13.58
2022-09-05T08:12:16.089Z,13.12
2022-09-05T08:14:52.937Z,12.97
2022-09-05T08:17:27.478Z,13.52
2022-09-05T08:20:10.111Z,13.54
2022-09-05T08:22:52.621Z,13.40
2022-09-05T08:25:36.257Z,13.55
2022-09-05T08:28:39.645Z,13.76
2022-09-05T08:31:20.696Z,13.62
2022-09-05T08:33:53.268Z,13.51
2022-09-05T08:36:40.487Z,13.65
2022-09-05T08:39:11.698Z,13.58
2022-09-05T08:41:56.113Z,13.58
2022-09-05T08:46:39.703Z,13.61
2022-09-05T08:47:45.556Z,13.52
2022-09-05T08:50:20.980Z,12.95
2022-09-05T08:53:28.151Z,13.59
2022-09-05T08:56:06.552Z,13.34
2022-09-05T08:58:49.906Z,13.51
2022-09-05T09:02:04.379Z,13.58
2022-09-05T09:05:01.374Z,13.61
2022-09-05T09:07:50.772Z,13.56
2022-09-05T09:10:46.593Z,13.69
2022-09-05T09:13:35.167Z,13.71
2022-09-05T09:16:39.843Z,13.21
2022-09-05T09:19:17.836Z,13.79
2022-09-05T09:22:14.782Z,13.15
2022-09-05T09:25:11.256Z,13.95
2022-09-05T09:28:43.706Z,13.58
2022-09-05T09:30:43.690Z,13.58
2022-09-05T09:33:20.681Z,14.09
2022-09-05T09:36:07.959Z,14.05
2022-09-05T09:38:41.351Z,13.51
2022-09-05T09:41:29.927Z,13.85
2022-09-05T09:44:15.704Z,14.23
2022-09-05T09:46:45.630Z,14.13
2022-09-05T09:49:46.492Z,14.18
2022-09-05T09:52:35.857Z,14.19
2022-09-05T09:55:24.705Z,14.19
2022-09-05T09:58:15.909Z,14.10
2022-09-05T10:00:55.315Z,14.03
2022-09-05T10:08:02.232Z,14.11
2022-09-05T10:10:53.994Z,13.98
2022-09-05T10:11:35.126Z,14.00
2022-09-05T10:14:49.232Z,13.83
2022-09-05T10:17:29.257Z,13.54
2022-09-05T10:20:10.302Z,13.52
2022-09-05T10:22:52.031Z,13.02
2022-09-05T10:25:36.979Z,13.13
2022-09-05T10:28:05.408Z,13.36
2022-09-05T10:32:13.588Z,13.39
2022-09-05T10:35:15.176Z,13.43
2022-09-05T10:37:05.383Z,13.18
2022-09-05T10:39:35.590Z,13.32
2022-09-05T10:42:09.075Z,12.67
2022-09-05T10:44:46.680Z,13.12
2022-09-05T10:47:38.577Z,13.37
2022-09-05T10:50:33.869Z,13.40
2022-09-05T10:53:28.386Z,13.37
2022-09-05T10:56:38.340Z,13.38
2022-09-05T11:02:18.723Z,12.76
2022-09-05T11:02:34.731Z,12.86
2022-09-05T11:05:23.221Z,12.88
2022-09-05T11:08:08.401Z,13.48
2022-09-05T11:11:04.664Z,13.42
2022-09-05T11:13:47.760Z,13.50
2022-09-05T11:16:27.568Z,13.36
2022-09-05T11:19:04.151Z,13.72
2022-09-05T11:22:12.092Z,13.95
2022-09-05T11:24:58.198Z,12.96
2022-09-05T11:27:44.317Z,13.56
2022-09-05T11:30:31.039Z,14.11
2022-09-05T11:36:56.750Z,14.04
2022-09-05T11:39:52.305Z,13.92
2022-09-05T11:40:04.114Z,14.05
2022-09-05T11:42:30.567Z,13.79
2022-09-05T11:45:22.409Z,13.26
2022-09-05T11:48:28.345Z,13.71
2022-09-05T11:51:33.483Z,13.64
2022-09-05T11:54:30.510Z,13.49
2022-09-05T11:57:33.504Z,13.29
2022-09-05T12:00:32.813Z,13.31
2022-09-05T12:03:57.479Z,13.19
2022-09-05T12:06:57.564Z,13.17
2022-09-05T12:09:54.457Z,13.06
2022-09-05T12:12:41.626Z,12.84
2022-09-05T12:15:22.494Z,12.94
2022-09-05T12:18:32.761Z,12.90
2022-09-05T12:21:12.430Z,12.24
2022-09-05T12:25:17.204Z,12.88
2022-09-05T12:27:41.953Z,12.93
2022-09-05T12:30:16.251Z,13.02
2022-09-05T12:36:01.368Z,13.09
2022-09-05T12:36:13.059Z,12.04
2022-09-05T12:41:33.148Z,13.34
2022-09-05T12:42:14.970Z,13.22
2022-09-05T12:44:46.663Z,13.64
2022-09-05T12:47:21.269Z,13.33
2022-09-05T12:50:03.566Z,13.55
2022-09-05T12:52:44.787Z,13.10
2022-09-05T12:55:40.806Z,13.63
2022-09-05T13:03:02.646Z,13.63
2022-09-05T13:03:05.547Z,12.66
2022-09-05T13:04:19.958Z,12.65
2022-09-05T13:06:58.702Z,13.38
2022-09-05T13:09:30.810Z,13.57
2022-09-05T13:14:47.169Z,13.48
2022-09-05T13:15:39.336Z,13.30
2022-09-05T13:18:13.322Z,13.24
2022-09-05T13:21:08.629Z,13.07
2022-09-05T13:24:01.663Z,13.08
2022-09-05T13:26:40.153Z,12.55
2022-09-05T13:29:13.379Z,12.45
2022-09-05T13:37:55.563Z,12.88
2022-09-05T13:37:59.206Z,12.63
2022-09-05T13:38:13.077Z,12.80
2022-09-05T13:40:47.397Z,12.62
2022-09-05T13:43:21.942Z,12.50
2022-09-05T13:46:15.665Z,12.01
2022-09-05T13:52:20.529Z,12.41
2022-09-05T13:55:05.354Z,12.13
2022-09-05T13:57:38.949Z,12.51
2022-09-05T14:00:18.753Z,12.60
2022-09-05T14:06:46.057Z,12.31
2022-09-05T14:09:51.572Z,12.90
2022-09-05T14:12:29.585Z,12.97
2022-09-05T14:15:37.767Z,13.02
2022-09-05T14:19:01.814Z,12.94
2022-09-05T14:21:31.730Z,12.45
2022-09-05T14:24:03.459Z,12.83
2022-09-05T14:26:42.660Z,12.92
2022-09-05T14:29:14.246Z,12.97
2022-09-05T14:37:34.618Z,12.76
2022-09-05T14:38:01.568Z,12.97
2022-09-05T14:38:11.553Z,12.75
2022-09-05T14:41:29.063Z,13.00
2022-09-05T14:44:16.433Z,12.93
2022-09-05T14:47:35.042Z,12.94
2022-09-05T14:50:04.207Z,12.97
2022-09-05T14:52:37.749Z,12.76
2022-09-05T15:02:44.208Z,12.12
2022-09-05T15:02:54.897Z,12.45
2022-09-05T15:06:35.940Z,12.52
2022-09-05T15:12:15.014Z,12.72
2022-09-05T15:12:20.231Z,12.51
2022-09-05T15:14:50.381Z,12.64
2022-09-05T15:17:23.724Z,12.74
2022-09-05T15:20:05.490Z,12.62
2022-09-05T15:22:37.635Z,12.70
2022-09-05T15:25:17.082Z,11.89
2022-09-05T15:27:46.475Z,12.78
2022-09-05T15:30:16.619Z,12.79
2022-09-05T15:32:48.498Z,12.20
2022-09-05T15:35:35.635Z,12.81
2022-09-05T15:38:27.065Z,12.87
2022-09-05T15:41:17.378Z,12.44
2022-09-05T15:44:04.727Z,12.68
2022-09-05T15:46:57.352Z,12.68
2022-09-05T15:49:40.998Z,12.80
2022-09-05T15:52:17.143Z,12.62
2022-09-05T15:55:02.913Z,12.53
2022-09-05T15:57:41.555Z,11.89
2022-09-05T16:00:12.050Z,11.88
2022-09-05T16:02:59.620Z,12.25
2022-09-05T16:10:36.221Z,12.07
2022-09-05T16:10:59.107Z,12.35
2022-09-05T16:16:20.128Z,12.37
2022-09-05T16:23:17.215Z,12.28
2022-09-05T16:23:23.944Z,12.27
2022-09-05T16:23:46.806Z,12.01
2022-09-05T16:26:25.402Z,12.17
2022-09-05T16:28:52.993Z,12.26
2022-09-05T16:31:45.720Z,12.34
2022-09-05T16:34:30.893Z,12.26
2022-09-05T16:37:20.042Z,12.29
2022-09-05T16:39:54.126Z,12.14
2022-09-05T16:42:46.670Z,11.86
2022-09-05T16:45:39.649Z,12.33
2022-09-05T16:48:46.925Z,12.34
2022-09-05T16:51:51.435Z,11.86
2022-09-05T16:54:40.352Z,12.29
2022-09-05T16:57:17.798Z,12.22
2022-09-05T16:59:46.460Z,12.18
2022-09-05T17:02:44.373Z,12.21
2022-09-05T17:05:13.427Z,12.09
2022-09-05T17:08:09.751Z,12.02
2022-09-05T17:10:57.771Z,12.06
2022-09-05T17:13:43.429Z,11.59
2022-09-05T17:16:19.529Z,12.01
2022-09-05T17:18:51.258Z,11.96
2022-09-05T17:23:59.511Z,11.77
2022-09-05T17:29:16.696Z,11.88
2022-09-05T17:29:42.578Z,11.84
2022-09-05T17:32:56.502Z,11.74
2022-09-05T17:35:32.659Z,11.72
2022-09-05T17:38:14.990Z,11.33
2022-09-05T17:41:12.740Z,11.59
2022-09-05T17:43:41.598Z,11.61
2022-09-05T17:46:20.448Z,11.62
2022-09-05T17:48:52.818Z,11.60
2022-09-05T17:51:34.737Z,11.66
2022-09-05T17:54:16.082Z,11.65
2022-09-05T17:56:47.405Z,11.19
2022-09-05T17:59:17.488Z,11.60
2022-09-05T18:02:03.493Z,11.63
2022-09-05T18:04:51.065Z,11.51
2022-09-05T18:07:28.703Z,11.57
2022-09-05T18:10:14.810Z,11.42
2022-09-05T18:13:12.415Z,11.33
2022-09-05T18:15:36.422Z,11.01
2022-09-05T18:18:08.786Z,11.50
2022-09-05T18:21:21.203Z,11.53
2022-09-05T18:24:05.005Z,11.57
2022-09-05T18:26:42.910Z,11.49
2022-09-05T18:29:28.743Z,10.75
2022-09-05T18:33:55.576Z,11.62
2022-09-05T18:35:54.277Z,11.16
2022-09-05T18:38:50.037Z,10.55
2022-09-05T18:41:19.195Z,11.55
2022-09-05T18:44:01.635Z,11.57
2022-09-05T18:46:51.800Z,11.51
2022-09-05T18:50:24.687Z,11.54
2022-09-05T18:52:34.040Z,11.00
2022-09-05T18:56:10.848Z,11.41
2022-09-05T18:58:26.919Z,11.61
2022-09-05T19:00:56.072Z,11.39
2022-09-05T19:03:29.027Z,11.27
2022-09-05T19:06:34.634Z,11.58
2022-09-05T19:08:53.991Z,11.50
2022-09-05T19:11:30.738Z,11.49
2022-09-05T19:14:18.376Z,11.35
2022-09-05T19:17:02.559Z,11.53
2022-09-05T19:19:31.568Z,11.20
2022-09-05T19:23:06.683Z,11.26
2022-09-05T19:24:49.487Z,11.08
2022-09-05T19:29:56.305Z,11.61
2022-09-05T19:36:48.761Z,11.62
2022-09-05T19:36:55.834Z,11.64
2022-09-05T19:37:07.382Z,10.97
2022-09-05T19:42:00.341Z,11.60
2022-09-05T19:47:27.577Z,11.62
2022-09-05T19:47:34.474Z,10.61
2022-09-05T19:48:07.774Z,11.12
2022-09-05T19:50:28.401Z,11.71
2022-09-05T19:53:07.686Z,11.50
2022-09-05T19:55:37.172Z,11.39
2022-09-05T19:58:19.076Z,11.48
2022-09-05T20:01:03.713Z,10.94
2022-09-05T20:03:39.955Z,11.46
2022-09-05T20:06:30.301Z,11.21
2022-09-05T20:09:19.206Z,11.56
2022-09-05T20:12:15.895Z,11.52
2022-09-05T20:14:43.084Z,10.93
2022-09-05T20:17:26.188Z,11.45
2022-09-05T20:20:12.408Z,11.29
2022-09-05T20:22:49.509Z,11.21
2022-09-05T20:25:41.682Z,11.46
2022-09-05T20:28:35.789Z,11.39
2022-09-05T20:31:08.523Z,11.36
2022-09-05T20:33:48.180Z,11.38
2022-09-05T20:43:08.493Z,10.89
2022-09-05T20:43:18.213Z,11.08
2022-09-05T20:43:35.846Z,11.08
2022-09-05T20:45:52.039Z,11.30
2022-09-05T20:54:13.408Z,10.34
2022-09-05T20:54:22.575Z,10.70
2022-09-05T20:54:31.630Z,11.04
2022-09-05T20:56:59.844Z,11.11
2022-09-05T20:59:31.881Z,11.10
2022-09-05T21:02:02.327Z,10.84
2022-09-05T21:04:35.337Z,10.51
2022-09-05T21:07:21.826Z,11.05
2022-09-05T21:09:53.158Z,11.01
2022-09-05T21:12:29.380Z,11.03
2022-09-05T21:15:02.048Z,11.00
2022-09-05T21:17:31.464Z,11.01
2022-09-05T21:20:00.550Z,11.00
2022-09-05T21:22:43.507Z,10.00
2022-09-05T21:25:20.212Z,11.04
2022-09-05T21:28:20.570Z,10.92
2022-09-05T21:30:47.975Z,10.98
2022-09-05T21:33:24.209Z,10.96
2022-09-05T21:36:04.760Z,10.94
2022-09-05T21:38:43.239Z,10.34
2022-09-05T21:41:10.693Z,10.52
2022-09-05T21:47:33.203Z,10.91
2022-09-05T21:47:42.805Z,10.84
2022-09-05T21:49:21.988Z,10.88
2022-09-05T21:51:53.309Z,10.27
2022-09-05T21:59:20.624Z,10.18
2022-09-05T21:59:22.002Z,10.86
2022-09-05T22:00:11.211Z,10.15
2022-09-05T22:02:49.446Z,10.82
2022-09-05T22:05:17.263Z,10.81
2022-09-05T22:07:44.325Z,10.68
2022-09-05T22:10:11.758Z,10.76
2022-09-05T22:12:39.337Z,10.82
2022-09-05T22:15:26.604Z,10.89
2022-09-05T22:18:14.743Z,10.95
2022-09-05T22:20:46.218Z,10.84
2022-09-05T22:23:20.697Z,10.82
2022-09-05T22:25:47.951Z,10.80
2022-09-05T22:28:21.579Z,10.83
2022-09-05T22:30:56.355Z,9.17
2022-09-05T22:33:25.201Z,10.75
2022-09-05T22:35:52.297Z,10.73
2022-09-05T22:38:20.166Z,10.25
2022-09-05T22:40:47.996Z,10.89
2022-09-05T22:43:17.007Z,10.75
2022-09-05T22:45:44.041Z,10.81
2022-09-05T22:48:13.716Z,10.84
2022-09-05T22:50:42.274Z,10.38
2022-09-05T22:53:10.010Z,10.82
2022-09-05T22:55:38.935Z,10.75
2022-09-05T22:58:08.100Z,10.77
2022-09-05T23:00:36.376Z,10.32
2022-09-05T23:03:06.080Z,10.60
2022-09-05T23:05:34.171Z,9.66
2022-09-05T23:08:03.531Z,10.69
2022-09-05T23:10:31.685Z,10.68
2022-09-05T23:12:58.979Z,10.54
2022-09-05T23:15:26.850Z,10.70
2022-09-05T23:17:55.343Z,10.61
2022-09-05T23:20:25.555Z,10.62
2022-09-05T23:22:52.868Z,10.68
2022-09-05T23:25:21.566Z,10.01
2022-09-05T23:27:49.354Z,10.51
2022-09-05T23:30:17.011Z,10.50
2022-09-05T23:32:48.923Z,10.69
2022-09-05T23:35:17.024Z,10.61
2022-09-05T23:37:45.413Z,10.39
2022-09-05T23:40:17.981Z,10.61
2022-09-05T23:42:52.906Z,10.43
2022-09-05T23:45:20.481Z,10.30
2022-09-05T23:47:47.696Z,10.54
2022-09-05T23:50:15.655Z,10.39
2022-09-05T23:52:43.903Z,10.41
2022-09-05T23:55:15.911Z,9.89
2022-09-05T23:57:43.562Z,10.34
